• Join FlightAware (Why Join?)
  • Login
  • US Flag 
05:08PM EDT


 

Airport Tracker/Info


-or-


 

Live Flight TrackerFlight Track Log ✈ LAK145 ✈ 23-Mar-2014 ✈ KJAC - KEGE

Flight Track Log - Related Links

Times and Time Zones

All times are in EDT time to prevent confusion due to time zone crossing. See the LAK145 flight status page for this flight to view local times or setup timezone preferences in your user account.

Time Position Orientation Groundspeed Altitude Reporting Facility
EDT Latitude Longitude Course Direction KTS MPH feet Rate Location/Type
04:07PM 43.5786 -110.7519 136° Southeast 150 173 8,900  Level Salt Lake Center
04:08PM 43.5258 -110.7897 207° Southwest 207 238 12,800 4,260 Climbing Salt Lake Center
04:09PM 43.4386 -110.7950 183° South 297 342 17,700 3,780 Climbing Salt Lake Center
04:10PM 43.1496 -110.8996 140° Southeast  Level FlightAware Approximate
04:10PM 43.3675 -110.7250 144° Southeast 327 376 20,600  Level Salt Lake Center
04:11PM 43.0840 -110.8229 140° Southeast  Level FlightAware Approximate
04:11PM 43.2853 -110.6481 146° Southeast 370 426 22,600  Level Salt Lake Center
04:12PM 43.0202 -110.7435 136° Southeast  Level FlightAware Approximate
04:12PM 43.1847 -110.5458 143° Southeast 398 458 25,300  Level Salt Lake Center
04:13PM 43.0978 -110.4619 145° Southeast 400 460 27,500 2,340 Climbing Salt Lake Center
04:14PM 42.9947 -110.3639 145° Southeast 402 463 30,100 2,220 Climbing Salt Lake Center
04:15PM 42.9100 -110.2756 143° Southeast 402 463 32,100 1,860 Climbing Salt Lake Center
04:16PM 42.8075 -110.1756 144° Southeast 404 465 34,000 1,680 Climbing Salt Lake Center
04:17PM 42.7189 -110.0933 146° Southeast 404 465 35,600 1,440 Climbing Salt Lake Center
04:18PM 42.6219 -109.9964 144° Southeast 393 452 37,000 660 Climbing Salt Lake Center
04:19PM 42.5328 -109.9117 145° Southeast 404 465 37,000  Level Salt Lake Center
04:20PM 42.4194 -109.8072 146° Southeast 435 501 37,000  Level Salt Lake Center
04:21PM 42.3239 -109.7086 143° Southeast 445 512 37,000  Level Salt Lake Center
04:22PM 42.2242 -109.6153 145° Southeast 452 520 37,000  Level Salt Lake Center
04:23PM 42.1086 -109.5025 144° Southeast 456 525 37,000  Level Salt Lake Center
04:24PM 42.0069 -109.4108 146° Southeast 458 527 37,000  Level Salt Lake Center
04:25PM 41.8928 -109.2983 144° Southeast 458 527 37,000  Level Salt Lake Center
04:26PM 41.7922 -109.2064 146° Southeast 458 527 37,000  Level Salt Lake Center
04:28PM 41.6247 -109.0483 145° Southeast 457 526 37,000  Level Denver Center
04:29PM 41.5092 -108.9286 142° Southeast 459 528 37,000  Level Denver Center
04:30PM 41.4142 -108.8167 139° Southeast 465 535 37,000  Level Denver Center
04:31PM 41.3172 -108.7128 141° Southeast 465 535 37,000  Level Denver Center
04:32PM 41.2072 -108.5897 140° Southeast 462 532 37,000 -300 Level Denver Center
04:33PM 41.1122 -108.4842 140° Southeast 463 533 36,400 -1,020 Descending Denver Center
04:34PM 41.0061 -108.3697 141° Southeast 443 510 35,000 -1,260 Descending Denver Center
04:35PM 40.9181 -108.2711 140° Southeast 435 501 33,800 -1,320 Descending Denver Center
04:36PM 40.8125 -108.1581 141° Southeast 435 501 32,300 -1,380 Descending Denver Center
04:37PM 40.7186 -108.0547 140° Southeast 436 502 31,000 -1,200 Descending Denver Center
04:38PM 40.6247 -107.9547 141° Southeast 446 513 29,900 -1,260 Descending Denver Center
04:39PM 40.5150 -107.8369 141° Southeast 450 518 28,400 -1,320 Descending Denver Center
04:40PM 40.4236 -107.7356 140° Southeast 450 518 27,200 -1,260 Descending Denver Center
04:41PM 40.3136 -107.6214 142° Southeast 450 518 25,800 -1,260 Descending Denver Center
04:42PM 40.2219 -107.5236 141° Southeast 447 514 24,600 -1,260 Descending Denver Center
04:43PM 40.1242 -107.4192 141° Southeast 408 470 23,200 -1,320 Descending Denver Center
04:44PM 40.0861 -107.2925 111° Southeast 405 466 21,900 -1,320 Descending Denver Center
04:45PM 40.0697 -107.1397 98° East 371 427 20,500 -1,260 Descending Denver Center
04:46PM 40.0600 -107.0258 96° East 351 404 19,400 -780 Descending Denver Center
04:48PM 40.0583 -106.9042 91° East 338 389 19,000 -240 Descending Denver Center
04:49PM 40.0792 -106.7883 77° East 327 376 19,000  Level Denver Center
04:50PM 40.1011 -106.6714 76° East 328 377 19,000 -660 Level Denver Center
04:51PM 40.1283 -106.5256 76° East 340 391 17,700 -1,020 Descending Denver Center
04:52PM 40.1514 -106.4111 75° East 329 379 17,000 -360 Descending Denver Center
04:53PM 40.1569 -106.3025 86° East 320 368 17,000  Level Denver Center
04:54PM 40.1111 -106.2025 121° Southeast 324 373 17,000 -540 Level Denver Center
04:55PM 40.0403 -106.1231 139° Southeast 333 383 16,000 -540 Descending Denver Center
04:56PM 40.0119 -106.1842 239° Southwest 254 292 16,000 -300 Level Denver Center
04:57PM 40.0044 -106.2603 263° West 228 262 15,400 -960 Descending Denver Center
04:58PM 39.9953 -106.3339 261° West 214 246 14,100 -780 Descending Denver Center
04:59PM 39.9786 -106.4378 258° West 233 268 13,900 -180 Descending Denver Center
05:00PM 39.9083 -106.4772 203° Southwest 260 299 13,800 -60 Descending Denver Center
05:01PM 39.8500 -106.5033 199° South 239 275 13,800  Level Denver Center
05:02PM 39.7997 -106.5292 202° Southwest 201 231 13,800 -480 Level Denver Center
05:03PM 39.7358 -106.5536 196° South 222 255 12,900 -660 Descending Denver Center
05:04PM 39.6939 -106.5878 212° Southwest 192 221 12,500 -540 Descending Denver Center
05:05PM 39.6833 -106.6539 258° West 190 219 11,800 -1,080 Descending Denver Center
05:06PM 39.6697 -106.7175 254° West 188 216 10,300 -1,500 Descending Denver Center
05:07PM 39.6603 -106.7808 259° West 153 176 8,800 -1,200 Descending Denver Center
05:08PM 39.6522 -106.8267 257° West 138 159 7,900 -780 Descending Denver Center
05:09PM 39.6478 -106.8667 262° West 125 144 7,200 -720 Descending Denver Center